createdAt,value
2023-05-19T00:00:37.878Z,13
2023-05-19T00:01:37.913Z,13
2023-05-19T00:02:37.945Z,13
2023-05-19T00:03:37.969Z,13
2023-05-19T00:04:37.887Z,13
2023-05-19T00:05:37.957Z,13
2023-05-19T00:06:37.888Z,13
2023-05-19T00:07:37.899Z,13
2023-05-19T00:08:38.895Z,13
2023-05-19T00:09:37.893Z,13
2023-05-19T00:10:37.937Z,13
2023-05-19T00:11:37.949Z,13
2023-05-19T00:12:37.900Z,13
2023-05-19T00:13:37.908Z,13
2023-05-19T00:14:37.887Z,13
2023-05-19T00:15:37.963Z,13
2023-05-19T00:16:37.912Z,13
2023-05-19T00:17:37.971Z,13.1
2023-05-19T00:18:37.963Z,13.1
2023-05-19T00:19:37.895Z,13.1
2023-05-19T00:20:37.891Z,13.1
2023-05-19T00:21:37.898Z,13.1
2023-05-19T00:22:37.905Z,13.1
2023-05-19T00:23:37.897Z,13.1
2023-05-19T00:24:37.881Z,13.1
2023-05-19T00:25:37.904Z,13.1
2023-05-19T00:26:37.939Z,13.1
2023-05-19T00:27:37.938Z,13.1
2023-05-19T00:28:37.900Z,13.1
2023-05-19T00:29:37.902Z,13.1
2023-05-19T00:30:37.920Z,13.1
2023-05-19T00:31:37.996Z,13.1
2023-05-19T00:32:38.010Z,13.1
2023-05-19T00:33:37.901Z,13.1
2023-05-19T00:34:37.914Z,13.1
2023-05-19T00:35:37.948Z,13.1
2023-05-19T00:36:37.919Z,13.1
2023-05-19T00:37:37.903Z,13.1
2023-05-19T00:38:37.940Z,13.1
2023-05-19T00:39:37.910Z,13.1
2023-05-19T00:40:37.927Z,13.1
2023-05-19T00:41:37.921Z,13.1
2023-05-19T00:42:37.928Z,13.1
2023-05-19T00:43:37.929Z,13.1
2023-05-19T00:44:37.907Z,13.1
2023-05-19T00:45:37.934Z,13.1
2023-05-19T00:46:37.979Z,13.1
2023-05-19T00:47:37.969Z,13.1
2023-05-19T00:48:37.932Z,13.1
2023-05-19T00:49:37.896Z,13.1
2023-05-19T00:50:37.920Z,13.1
2023-05-19T00:51:37.939Z,13.1
2023-05-19T00:52:37.975Z,13.1
2023-05-19T00:53:37.928Z,13.1
2023-05-19T00:54:37.939Z,13.1
2023-05-19T00:55:37.918Z,13.1
2023-05-19T00:56:37.940Z,13.1
2023-05-19T00:57:37.915Z,13.1
2023-05-19T00:58:37.907Z,13.1
2023-05-19T00:59:37.936Z,13.1
2023-05-19T01:00:37.967Z,13.1
2023-05-19T01:01:38.022Z,13.1
2023-05-19T01:02:37.974Z,13.1
2023-05-19T01:03:38.005Z,13.1
2023-05-19T01:04:37.935Z,13.1
2023-05-19T01:05:37.920Z,13.1
2023-05-19T01:06:37.925Z,13.1
2023-05-19T01:07:37.907Z,13.1
2023-05-19T01:08:37.968Z,13.1
2023-05-19T01:09:37.919Z,13.1
2023-05-19T01:10:37.920Z,13.1
2023-05-19T01:11:37.926Z,13.1
2023-05-19T01:12:37.923Z,13.1
2023-05-19T01:13:40.334Z,13.1
2023-05-19T01:14:37.973Z,13.1
2023-05-19T01:15:37.933Z,13.1
2023-05-19T01:16:37.985Z,13.1
2023-05-19T01:17:37.951Z,13.1
2023-05-19T01:18:37.942Z,13.1
2023-05-19T01:19:37.936Z,13.1
2023-05-19T01:20:37.933Z,13.1
2023-05-19T01:21:37.929Z,13.1
2023-05-19T01:22:37.935Z,13.1
2023-05-19T01:23:37.952Z,13.1
2023-05-19T01:24:37.936Z,12.9
2023-05-19T01:25:38.003Z,12.9
2023-05-19T01:26:37.941Z,12.9
2023-05-19T01:27:37.932Z,12.9
2023-05-19T01:28:37.927Z,12.9
2023-05-19T01:29:37.937Z,12.9
2023-05-19T01:30:38.003Z,12.9
2023-05-19T01:31:37.980Z,12.9
2023-05-19T01:32:38.003Z,12.9
2023-05-19T01:35:37.970Z,12.9
2023-05-19T01:35:42.043Z,12.9
2023-05-19T01:36:37.956Z,12.9
2023-05-19T01:37:37.952Z,12.9
2023-05-19T01:38:37.958Z,12.9
2023-05-19T01:39:37.954Z,12.9
2023-05-19T01:40:37.953Z,12.9
2023-05-19T01:41:37.992Z,12.9
2023-05-19T01:42:37.992Z,12.9
2023-05-19T01:43:37.957Z,12.9
2023-05-19T01:44:37.955Z,12.9
2023-05-19T01:45:38.007Z,12.9
2023-05-19T01:52:37.970Z,12.9
2023-05-19T01:53:37.970Z,12.9
2023-05-19T01:54:37.944Z,12.9
2023-05-19T01:55:37.952Z,12.9
2023-05-19T01:56:37.965Z,12.9
2023-05-19T01:57:37.954Z,12.6
2023-05-19T01:58:37.963Z,12.6
2023-05-19T01:59:37.980Z,12.6
2023-05-19T02:00:37.955Z,12.6
2023-05-19T02:01:38.113Z,12.6
2023-05-19T02:02:38.009Z,12.6
2023-05-19T02:03:37.961Z,12.6
2023-05-19T02:04:38.000Z,12.6
2023-05-19T02:05:37.975Z,12.6
2023-05-19T02:06:37.972Z,12.6
2023-05-19T02:07:38.957Z,12.6
2023-05-19T02:08:37.973Z,12.6
2023-05-19T02:09:37.960Z,12.6
2023-05-19T02:10:37.965Z,12.6
2023-05-19T02:11:37.962Z,12.6
2023-05-19T02:12:37.952Z,12.6
2023-05-19T02:13:38.021Z,12.6
2023-05-19T02:14:37.964Z,12.6
2023-05-19T02:15:38.066Z,12.6
2023-05-19T02:16:37.969Z,12.6
2023-05-19T02:17:38.001Z,12.1
2023-05-19T02:18:38.162Z,12.1
2023-05-19T02:19:37.987Z,12.1
2023-05-19T02:20:37.983Z,12.1
2023-05-19T02:21:38.014Z,12.1
2023-05-19T02:22:37.985Z,12.1
2023-05-19T02:23:37.966Z,11.9
2023-05-19T02:24:38.007Z,11.9
2023-05-19T02:25:37.974Z,11.9
2023-05-19T02:26:37.975Z,11.9
2023-05-19T02:27:37.973Z,11.9
2023-05-19T02:28:37.977Z,11.9
2023-05-19T02:29:37.980Z,11.9
2023-05-19T02:30:37.984Z,11.9
2023-05-19T02:31:37.986Z,11.9
2023-05-19T02:32:38.083Z,11.9
2023-05-19T02:33:38.002Z,11.9
2023-05-19T02:34:37.989Z,11.9
2023-05-19T02:35:37.986Z,11.6
2023-05-19T02:36:37.960Z,11.6
2023-05-19T02:37:38.028Z,11.6
2023-05-19T02:38:37.993Z,11.6
2023-05-19T02:39:37.988Z,11.6
2023-05-19T02:40:37.986Z,11.6
2023-05-19T02:41:37.979Z,11.6
2023-05-19T02:42:37.990Z,11.6
2023-05-19T02:43:38.014Z,11.6
2023-05-19T02:44:38.045Z,11.6
2023-05-19T02:45:37.980Z,11.6
2023-05-19T02:46:38.034Z,11.6
2023-05-19T02:47:38.012Z,11.6
2023-05-19T02:48:37.988Z,11.6
2023-05-19T02:49:38.038Z,11.6
2023-05-19T02:50:38.036Z,11.6
2023-05-19T02:51:37.998Z,11.6
2023-05-19T02:52:38.038Z,11.6
2023-05-19T02:53:37.984Z,11.6
2023-05-19T02:54:37.995Z,11.6
2023-05-19T02:55:38.030Z,11.6
2023-05-19T02:56:38.005Z,11.6
2023-05-19T02:57:38.010Z,11.6
2023-05-19T02:58:37.998Z,11.6
2023-05-19T02:59:37.992Z,11.3
2023-05-19T03:00:38.003Z,11.3
2023-05-19T03:01:38.084Z,11.3
2023-05-19T03:02:38.113Z,11.3
2023-05-19T03:03:38.175Z,11.3
2023-05-19T03:04:38.002Z,11.3
2023-05-19T03:05:38.015Z,11.3
2023-05-19T03:06:38.028Z,11.3
2023-05-19T03:07:38.079Z,11.3
2023-05-19T03:08:38.816Z,11.3
2023-05-19T03:09:38.037Z,11.3
2023-05-19T03:10:38.013Z,11.3
2023-05-19T03:11:38.021Z,11.3
2023-05-19T03:12:38.038Z,11.3
2023-05-19T03:13:38.044Z,11.3
2023-05-19T03:14:37.990Z,11.3
2023-05-19T03:15:38.044Z,11.3
2023-05-19T03:16:38.143Z,11.3
2023-05-19T03:17:38.090Z,11.3
2023-05-19T03:18:38.024Z,11.2
2023-05-19T03:19:38.018Z,11.2
2023-05-19T03:20:39.585Z,11.2
2023-05-19T03:21:37.995Z,11.2
2023-05-19T03:22:37.997Z,11.2
2023-05-19T03:23:38.016Z,11.2
2023-05-19T03:24:38.056Z,11.2
2023-05-19T03:25:37.992Z,11.2
2023-05-19T03:26:38.032Z,11.2
2023-05-19T03:27:37.998Z,11.2
2023-05-19T03:28:38.048Z,11.2
2023-05-19T03:29:38.029Z,11.2
2023-05-19T03:30:38.033Z,11.2
2023-05-19T03:31:38.041Z,11.2
2023-05-19T03:32:38.130Z,11.2
2023-05-19T03:33:38.071Z,11.2
2023-05-19T03:34:37.998Z,11.2
2023-05-19T03:35:38.042Z,11.2
2023-05-19T03:36:38.002Z,11.2
2023-05-19T03:37:38.080Z,11.2
2023-05-19T03:38:38.001Z,11.2
2023-05-19T03:39:38.022Z,11.2
2023-05-19T03:40:38.035Z,11.2
2023-05-19T03:41:38.014Z,11.2
2023-05-19T03:42:38.010Z,11.2
2023-05-19T03:43:38.048Z,11.2
2023-05-19T03:44:38.043Z,11.2
2023-05-19T03:45:38.070Z,11.2
2023-05-19T03:46:38.056Z,11.2
2023-05-19T03:47:38.095Z,11.2
2023-05-19T03:48:38.052Z,11.2
2023-05-19T03:49:38.080Z,11.2
2023-05-19T03:50:38.056Z,11.2
2023-05-19T03:51:38.060Z,11.2
2023-05-19T03:52:38.047Z,11.2
2023-05-19T03:53:38.098Z,11.3
2023-05-19T03:54:38.057Z,11.3
2023-05-19T03:55:38.040Z,11.3
2023-05-19T03:56:38.057Z,11.3
2023-05-19T03:57:38.057Z,11.3
2023-05-19T03:58:38.039Z,11.3
2023-05-19T03:59:38.053Z,11.3
2023-05-19T04:00:38.052Z,11.3
2023-05-19T04:01:38.055Z,11.3
2023-05-19T04:02:38.273Z,11.3
2023-05-19T04:03:38.093Z,11.3
2023-05-19T04:04:38.220Z,11.3
2023-05-19T04:05:38.059Z,11.3
2023-05-19T04:06:38.055Z,11.3
2023-05-19T04:07:38.060Z,11.3
2023-05-19T04:08:38.046Z,11.3
2023-05-19T04:09:38.040Z,11.3
2023-05-19T04:10:38.060Z,11.3
2023-05-19T04:11:38.100Z,11.3
2023-05-19T04:12:38.054Z,11.3
2023-05-19T04:13:38.057Z,11.3
2023-05-19T04:14:38.051Z,11.3
2023-05-19T04:15:38.184Z,11.3
2023-05-19T04:16:38.071Z,11.3
2023-05-19T04:17:38.085Z,11.3
2023-05-19T04:18:38.070Z,11.3
2023-05-19T04:19:38.050Z,11.3
2023-05-19T04:20:38.064Z,11.3
2023-05-19T04:21:38.057Z,11.3
2023-05-19T04:22:38.067Z,11.3
2023-05-19T04:23:38.062Z,11.3
2023-05-19T04:24:38.073Z,11.3
2023-05-19T04:25:38.148Z,11.3
2023-05-19T04:26:38.062Z,11.3
2023-05-19T04:27:38.070Z,11.3
2023-05-19T04:28:38.064Z,11.3
2023-05-19T04:29:38.093Z,11.3
2023-05-19T04:30:38.314Z,11.3
2023-05-19T04:31:38.184Z,11.3
2023-05-19T04:32:38.104Z,11.9
2023-05-19T04:33:38.075Z,11.9
2023-05-19T04:34:38.069Z,11.9
2023-05-19T04:35:38.076Z,11.9
2023-05-19T04:36:38.066Z,11.9
2023-05-19T04:37:38.103Z,11.9
2023-05-19T04:38:38.075Z,11.9
2023-05-19T04:39:38.088Z,11.9
2023-05-19T04:40:38.075Z,11.9
2023-05-19T04:41:38.062Z,11.9
2023-05-19T04:42:38.106Z,11.9
2023-05-19T04:43:38.064Z,11.9
2023-05-19T04:44:38.089Z,11.9
2023-05-19T04:45:38.085Z,11.9
2023-05-19T04:46:38.144Z,11.9
2023-05-19T04:47:38.185Z,11.9
2023-05-19T04:48:38.070Z,11.9
2023-05-19T04:49:38.111Z,11.9
2023-05-19T04:50:38.147Z,11.9
2023-05-19T04:51:38.065Z,12.4
2023-05-19T04:52:38.104Z,12.4
2023-05-19T04:53:38.077Z,12.4
2023-05-19T04:54:38.067Z,12.4
2023-05-19T04:55:38.131Z,12.4
2023-05-19T04:56:38.087Z,12.4
2023-05-19T04:57:38.073Z,12.4
2023-05-19T04:58:39.684Z,12.4
2023-05-19T04:59:38.084Z,12.4
2023-05-19T05:00:38.113Z,12.9
2023-05-19T05:01:38.111Z,12.9
2023-05-19T05:02:38.206Z,12.9
2023-05-19T05:03:38.152Z,12.9
2023-05-19T05:04:38.083Z,12.9
2023-05-19T05:05:38.120Z,12.9
2023-05-19T05:06:38.074Z,12.9
2023-05-19T05:07:38.088Z,13.3
2023-05-19T05:08:38.078Z,13.3
2023-05-19T05:09:38.083Z,13.4
2023-05-19T05:10:38.089Z,13.4
2023-05-19T05:11:38.099Z,13.4
2023-05-19T05:12:38.081Z,13.4
2023-05-19T05:13:38.077Z,13.4
2023-05-19T05:14:38.146Z,13.4
2023-05-19T05:15:38.085Z,14
2023-05-19T05:16:38.189Z,14
2023-05-19T05:17:38.121Z,14
2023-05-19T05:18:38.106Z,14
2023-05-19T05:19:38.085Z,14
2023-05-19T05:20:38.079Z,14
2023-05-19T05:21:38.089Z,14
2023-05-19T05:22:38.091Z,14
2023-05-19T05:23:38.080Z,14
2023-05-19T05:24:38.088Z,14.5
2023-05-19T05:25:38.112Z,14.5
2023-05-19T05:26:38.113Z,14.5
2023-05-19T05:27:38.095Z,14.5
2023-05-19T05:28:38.084Z,14.5
2023-05-19T05:29:38.108Z,14.5
2023-05-19T05:30:38.086Z,14.5
2023-05-19T05:31:38.082Z,14.5
2023-05-19T05:32:38.232Z,15
2023-05-19T05:33:38.194Z,15
2023-05-19T05:34:38.084Z,15
2023-05-19T05:35:38.089Z,15
2023-05-19T05:36:38.090Z,15
2023-05-19T05:37:38.101Z,15
2023-05-19T05:38:38.093Z,15
2023-05-19T05:39:38.108Z,15
2023-05-19T05:40:38.083Z,15
2023-05-19T05:41:38.096Z,15
2023-05-19T05:42:38.086Z,15
2023-05-19T05:43:38.097Z,15
2023-05-19T05:44:38.084Z,15
2023-05-19T05:45:38.116Z,15
2023-05-19T05:46:38.148Z,15
2023-05-19T05:47:38.164Z,15
2023-05-19T05:48:38.100Z,15
2023-05-19T05:49:38.112Z,15
2023-05-19T05:50:38.087Z,15
2023-05-19T05:51:38.130Z,15
2023-05-19T05:52:38.094Z,15
2023-05-19T05:53:38.099Z,15
2023-05-19T05:54:38.100Z,15
2023-05-19T05:55:38.066Z,15
2023-05-19T05:56:38.100Z,15
2023-05-19T05:57:38.105Z,15
2023-05-19T05:58:38.097Z,15
2023-05-19T05:59:38.106Z,15
2023-05-19T06:00:38.107Z,15
2023-05-19T06:01:38.100Z,15.5
2023-05-19T06:02:38.204Z,15.5
2023-05-19T06:03:38.116Z,15.5
2023-05-19T06:04:38.110Z,15.5
2023-05-19T06:05:38.128Z,15.5
2023-05-19T06:06:38.095Z,15.5
2023-05-19T06:07:38.093Z,15.5
2023-05-19T06:08:38.124Z,15.5
2023-05-19T06:09:38.163Z,15.5
2023-05-19T06:10:38.104Z,15.5
2023-05-19T06:11:38.097Z,15.5
2023-05-19T06:12:38.084Z,15.5
2023-05-19T06:13:38.113Z,15.5
2023-05-19T06:14:38.095Z,15.5
2023-05-19T06:15:38.157Z,15.5
2023-05-19T06:16:38.141Z,15.5
2023-05-19T06:17:38.150Z,15.5
2023-05-19T06:18:38.150Z,15
2023-05-19T06:19:38.119Z,15
2023-05-19T06:20:38.141Z,15
2023-05-19T06:21:38.156Z,15
2023-05-19T06:22:38.102Z,15
2023-05-19T06:23:38.113Z,15
2023-05-19T06:24:39.611Z,15
2023-05-19T06:25:38.109Z,15.5
2023-05-19T06:26:38.114Z,15.5
2023-05-19T06:27:38.109Z,15.5
2023-05-19T06:28:38.116Z,15.5
2023-05-19T06:29:38.108Z,15.5
2023-05-19T06:30:38.122Z,15.5
2023-05-19T06:31:38.186Z,15.5
2023-05-19T06:32:38.127Z,15.5
2023-05-19T06:33:38.109Z,15.5
2023-05-19T06:34:38.157Z,16.1
2023-05-19T06:35:38.100Z,16.1
2023-05-19T06:36:38.106Z,16.1
2023-05-19T06:37:38.126Z,16.1
2023-05-19T06:38:38.146Z,16.1
2023-05-19T06:39:38.103Z,16.1
2023-05-19T06:40:38.102Z,16.1
2023-05-19T06:41:38.111Z,16.1
2023-05-19T06:42:38.163Z,16.1
2023-05-19T06:43:38.125Z,16.1
2023-05-19T06:44:38.110Z,16.1
2023-05-19T06:45:38.165Z,16.1
2023-05-19T06:46:38.168Z,16.1
2023-05-19T06:47:38.203Z,16.6
2023-05-19T06:48:38.186Z,16.6
2023-05-19T06:49:38.120Z,16.6
2023-05-19T06:50:38.107Z,16.6
2023-05-19T06:51:38.102Z,16.6
2023-05-19T06:52:38.252Z,16.6
2023-05-19T06:53:38.125Z,16.6
2023-05-19T06:54:38.118Z,16.6
2023-05-19T06:55:46.896Z,16.6
2023-05-19T06:56:38.133Z,16.6
2023-05-19T06:57:38.131Z,16.6
2023-05-19T06:58:38.187Z,17
2023-05-19T06:59:38.125Z,17
2023-05-19T07:00:38.119Z,17
2023-05-19T07:01:38.199Z,17
2023-05-19T07:02:38.225Z,17
2023-05-19T07:03:38.214Z,17
2023-05-19T07:04:38.136Z,17.2
2023-05-19T07:05:38.125Z,17.2
2023-05-19T07:06:38.128Z,17.3
2023-05-19T07:07:38.136Z,17.3
2023-05-19T07:08:38.136Z,17.3
2023-05-19T07:09:38.130Z,17.3
2023-05-19T07:10:38.133Z,17.3
2023-05-19T07:11:38.130Z,17.3
2023-05-19T07:12:38.118Z,17.3
2023-05-19T07:13:38.134Z,17.3
2023-05-19T07:14:38.125Z,17.3
2023-05-19T07:15:38.130Z,17.3
2023-05-19T07:16:38.172Z,17.3
2023-05-19T07:17:38.253Z,17.3
2023-05-19T07:18:38.180Z,17.3
2023-05-19T07:19:38.137Z,17.3
2023-05-19T07:20:38.139Z,17.3
2023-05-19T07:21:38.204Z,17.3
2023-05-19T07:22:38.127Z,17.3
2023-05-19T07:23:38.138Z,17.3
2023-05-19T07:24:38.118Z,17.3
2023-05-19T07:25:38.116Z,17.3
2023-05-19T07:26:38.125Z,17.3
2023-05-19T07:27:38.150Z,17.3
2023-05-19T07:28:40.699Z,17.3
2023-05-19T07:29:38.151Z,17.3
2023-05-19T07:30:38.138Z,17.3
2023-05-19T07:31:38.173Z,17.3
2023-05-19T07:32:38.259Z,17.3
2023-05-19T07:33:38.151Z,17.8
2023-05-19T07:34:38.130Z,17.8
2023-05-19T07:35:38.150Z,17.8
2023-05-19T07:36:38.142Z,17.8
2023-05-19T07:37:38.129Z,17.8
2023-05-19T07:38:38.384Z,17.8
2023-05-19T07:39:38.168Z,17.8
2023-05-19T07:40:38.157Z,17.8
2023-05-19T07:41:38.156Z,17.8
2023-05-19T07:42:38.172Z,17.8
2023-05-19T07:43:38.161Z,17.8
2023-05-19T07:44:38.231Z,17.8
2023-05-19T07:45:38.177Z,17.8
2023-05-19T07:46:38.283Z,17.8
2023-05-19T07:47:38.183Z,17.8
2023-05-19T07:48:38.156Z,17.8
2023-05-19T07:49:38.172Z,17.8
2023-05-19T07:50:38.230Z,17.8
2023-05-19T07:51:38.164Z,17.8
2023-05-19T07:52:38.163Z,17.8
2023-05-19T07:53:38.198Z,17.8
2023-05-19T07:54:38.175Z,18.1
2023-05-19T07:55:38.171Z,18.1
2023-05-19T07:56:38.166Z,18.1
2023-05-19T07:57:38.161Z,18.1
2023-05-19T07:58:38.160Z,18.1
2023-05-19T07:59:38.167Z,18.1
2023-05-19T08:00:38.224Z,18.2
2023-05-19T08:01:38.175Z,18.2
2023-05-19T08:02:38.234Z,18.2
2023-05-19T08:03:38.285Z,18.2
2023-05-19T08:04:38.201Z,18.2
2023-05-19T08:05:38.172Z,18.2
2023-05-19T08:06:38.194Z,18.2
2023-05-19T08:07:38.170Z,18.2
2023-05-19T08:08:38.186Z,18.2
2023-05-19T08:09:38.171Z,18.2
2023-05-19T08:10:38.162Z,18.2
2023-05-19T08:11:38.309Z,18.2
2023-05-19T08:12:38.165Z,18.2
2023-05-19T08:13:38.164Z,18.2
2023-05-19T08:14:38.161Z,18.2
2023-05-19T08:15:38.201Z,18.2
2023-05-19T08:16:38.162Z,18.2
2023-05-19T08:17:38.344Z,18.2
2023-05-19T08:18:38.283Z,18.2
2023-05-19T08:19:38.193Z,18.2
2023-05-19T08:20:38.359Z,18.2
2023-05-19T08:21:38.193Z,18.2
2023-05-19T08:22:38.215Z,18.6
2023-05-19T08:23:38.189Z,18.6
2023-05-19T08:24:38.193Z,18.6
2023-05-19T08:25:38.197Z,18.6
2023-05-19T08:26:38.282Z,18.6
2023-05-19T08:27:38.195Z,18.6
2023-05-19T08:28:38.191Z,18.6
2023-05-19T08:29:38.188Z,18.6
2023-05-19T08:30:38.153Z,18.6
2023-05-19T08:31:38.327Z,18.6
2023-05-19T08:32:38.189Z,18.6
2023-05-19T08:33:38.192Z,18.6
2023-05-19T08:34:38.192Z,18.6
2023-05-19T08:35:38.193Z,18.6
2023-05-19T08:36:38.208Z,18.6
2023-05-19T08:37:38.194Z,18.6
2023-05-19T08:38:38.207Z,18.6
2023-05-19T08:39:38.191Z,18.6
2023-05-19T08:40:38.194Z,18.6
2023-05-19T08:41:38.194Z,18.6
2023-05-19T08:42:38.196Z,18.6
2023-05-19T08:43:38.191Z,18.6
2023-05-19T08:44:38.209Z,18.6
2023-05-19T08:45:38.184Z,18.6
2023-05-19T08:46:38.262Z,18.6
2023-05-19T08:47:38.222Z,18.6
2023-05-19T08:48:38.186Z,18.6
2023-05-19T08:49:38.187Z,18.6
2023-05-19T08:50:38.204Z,19.1
2023-05-19T08:51:38.207Z,19.1
2023-05-19T08:52:38.188Z,19.1
2023-05-19T08:53:38.192Z,19.1
2023-05-19T08:54:38.193Z,19.1
2023-05-19T08:55:38.189Z,19.1
2023-05-19T08:56:38.194Z,19.1
2023-05-19T08:57:38.212Z,19.1
2023-05-19T08:58:38.181Z,19.1
2023-05-19T08:59:38.194Z,19.1
2023-05-19T09:00:38.234Z,19.1
2023-05-19T09:02:46.404Z,19.1
2023-05-19T09:03:38.406Z,19.1
2023-05-19T09:04:38.233Z,19.1
2023-05-19T09:05:38.277Z,19.1
2023-05-19T09:06:38.191Z,19.1
2023-05-19T09:07:38.203Z,19.1
2023-05-19T09:08:38.190Z,19.1
2023-05-19T09:09:38.189Z,19.1
2023-05-19T09:10:38.189Z,19.1
2023-05-19T09:11:38.237Z,19.1
2023-05-19T09:12:38.188Z,19.1
2023-05-19T09:13:38.194Z,19.1
2023-05-19T09:14:38.183Z,19.1
2023-05-19T09:15:38.200Z,19.1
2023-05-19T09:16:38.224Z,19.1
2023-05-19T09:17:38.214Z,19.1
2023-05-19T09:18:38.239Z,19.1
2023-05-19T09:19:38.192Z,19.1
2023-05-19T09:20:38.190Z,19.1
2023-05-19T09:21:38.240Z,19.1
2023-05-19T09:22:38.206Z,19.7
2023-05-19T09:23:38.201Z,19.7
2023-05-19T09:24:38.191Z,19.7
2023-05-19T09:25:38.186Z,19.7
2023-05-19T09:26:38.207Z,19.7
2023-05-19T09:27:38.208Z,19.7
2023-05-19T09:28:38.274Z,19.7
2023-05-19T09:29:38.199Z,19.7
2023-05-19T09:30:38.193Z,19.7
2023-05-19T09:31:38.217Z,19.7
2023-05-19T09:32:38.214Z,19.7
2023-05-19T09:33:38.212Z,19.7
2023-05-19T09:34:38.199Z,19.7
2023-05-19T09:35:38.219Z,19.9
2023-05-19T09:36:38.207Z,19.9
2023-05-19T09:37:38.210Z,19.9
2023-05-19T09:38:38.202Z,19.9
2023-05-19T09:39:38.216Z,19.9
2023-05-19T09:40:38.207Z,19.9
2023-05-19T09:41:38.214Z,19.9
2023-05-19T09:42:38.203Z,19.9
2023-05-19T09:43:38.194Z,19.9
2023-05-19T09:44:38.219Z,19.9
2023-05-19T09:45:38.206Z,20.3
2023-05-19T09:46:38.282Z,20.3
2023-05-19T09:47:38.363Z,20.3
2023-05-19T09:48:38.214Z,20.3
2023-05-19T09:49:38.208Z,20.3
2023-05-19T09:50:38.172Z,20.3
2023-05-19T09:51:38.223Z,20.4
2023-05-19T09:52:38.172Z,20.4
2023-05-19T09:53:38.181Z,20.4
2023-05-19T09:54:38.206Z,20.4
2023-05-19T09:55:38.203Z,20.4
2023-05-19T09:56:38.217Z,20.4
2023-05-19T09:57:38.206Z,20.4
2023-05-19T09:58:38.219Z,20.4
2023-05-19T09:59:38.221Z,20.4
2023-05-19T10:00:38.259Z,20.4
2023-05-19T10:01:38.224Z,20.4
2023-05-19T10:02:38.282Z,20.4
2023-05-19T10:03:38.213Z,20.4
2023-05-19T10:04:38.334Z,20.4
2023-05-19T10:05:38.222Z,20.4
2023-05-19T10:06:38.220Z,20.4
2023-05-19T10:07:38.262Z,20.4
2023-05-19T10:08:38.223Z,20.4
2023-05-19T10:09:38.220Z,20.4
2023-05-19T10:10:38.220Z,20.4
2023-05-19T10:11:38.221Z,20.4
2023-05-19T10:12:38.214Z,20.4
2023-05-19T10:13:38.217Z,20.4
2023-05-19T10:14:38.252Z,20.4
2023-05-19T10:15:50.021Z,20.9
2023-05-19T10:16:38.256Z,20.9
2023-05-19T10:17:38.224Z,20.9
2023-05-19T10:18:40.021Z,20.9
2023-05-19T10:19:38.244Z,20.9
2023-05-19T10:20:38.223Z,20.9
2023-05-19T10:21:38.215Z,20.9
2023-05-19T10:22:38.222Z,20.9
2023-05-19T10:23:38.233Z,20.9
2023-05-19T10:24:38.229Z,20.9
2023-05-19T10:25:38.272Z,20.9
2023-05-19T10:26:38.225Z,20.9
2023-05-19T10:27:38.333Z,20.9
2023-05-19T10:28:38.214Z,20.9
2023-05-19T10:29:38.231Z,20.9
2023-05-19T10:30:38.219Z,20.9
2023-05-19T10:31:38.315Z,20.9
2023-05-19T10:32:38.222Z,20.9
2023-05-19T10:33:38.239Z,20.9
2023-05-19T10:34:38.195Z,20.9
2023-05-19T10:35:38.429Z,20.9
2023-05-19T10:36:38.234Z,20.9
2023-05-19T10:37:38.203Z,20.9
2023-05-19T10:38:38.214Z,20.9
2023-05-19T10:39:38.193Z,20.9
2023-05-19T10:40:38.229Z,20.4
2023-05-19T10:41:38.236Z,20.4
2023-05-19T10:42:38.241Z,20.4
2023-05-19T10:43:38.198Z,20.4
2023-05-19T10:44:38.254Z,20.4
2023-05-19T10:45:38.231Z,20.5
2023-05-19T10:46:38.297Z,20.5
2023-05-19T10:47:38.238Z,20.5
2023-05-19T10:48:38.228Z,20.5
2023-05-19T10:49:38.243Z,20.5
2023-05-19T10:50:38.222Z,20.5
2023-05-19T10:51:38.231Z,20.5
2023-05-19T10:52:38.215Z,20.5
2023-05-19T10:53:38.193Z,20.5
2023-05-19T10:54:38.203Z,20.6
2023-05-19T10:55:38.250Z,20.6
2023-05-19T10:56:38.217Z,20.6
2023-05-19T10:57:38.226Z,20.6
2023-05-19T10:58:38.204Z,20.6
2023-05-19T10:59:38.204Z,20.6
2023-05-19T11:00:38.230Z,20.6
2023-05-19T11:01:38.307Z,20.6
2023-05-19T11:02:38.267Z,20.6
2023-05-19T11:03:38.244Z,20.6
2023-05-19T11:04:38.241Z,20.6
2023-05-19T11:05:38.385Z,20.6
2023-05-19T11:06:38.252Z,20
2023-05-19T11:07:38.229Z,20
2023-05-19T11:08:38.197Z,20
2023-05-19T11:09:40.529Z,20
2023-05-19T11:10:38.203Z,20
2023-05-19T11:11:38.245Z,20
2023-05-19T11:12:38.252Z,20
2023-05-19T11:13:38.248Z,20
2023-05-19T11:14:38.232Z,20
2023-05-19T11:15:38.240Z,20
2023-05-19T11:16:38.295Z,20
2023-05-19T11:17:38.264Z,20
2023-05-19T11:18:38.267Z,20
2023-05-19T11:19:38.246Z,20
2023-05-19T11:20:38.238Z,20
2023-05-19T11:21:38.244Z,20
2023-05-19T11:22:38.252Z,20
2023-05-19T11:23:38.300Z,20
2023-05-19T11:24:38.239Z,20
2023-05-19T11:25:38.237Z,20
2023-05-19T11:26:38.242Z,20
2023-05-19T11:27:38.257Z,20
2023-05-19T11:28:38.238Z,20
2023-05-19T11:29:38.214Z,20.2
2023-05-19T11:30:38.245Z,20.2
2023-05-19T11:31:38.262Z,20.2
2023-05-19T11:32:38.277Z,20.2
2023-05-19T11:33:38.236Z,20.2
2023-05-19T11:34:38.247Z,20.2
2023-05-19T11:35:38.516Z,20.2
2023-05-19T11:36:38.235Z,20.2
2023-05-19T11:37:38.264Z,20.2
2023-05-19T11:38:38.230Z,20.2
2023-05-19T11:39:38.246Z,20.2
2023-05-19T11:40:38.253Z,20.2
2023-05-19T11:41:38.242Z,20.2
2023-05-19T11:42:38.289Z,20.2
2023-05-19T11:43:38.277Z,20.2
2023-05-19T11:44:38.227Z,20.6
2023-05-19T11:45:38.234Z,20.6
2023-05-19T11:46:38.261Z,20.6
2023-05-19T11:47:50.958Z,20.8
2023-05-19T11:48:38.374Z,20.8
2023-05-19T11:49:38.228Z,20.8
2023-05-19T11:50:38.262Z,20.8
2023-05-19T11:51:38.236Z,20.8
2023-05-19T11:52:38.249Z,20.8
2023-05-19T11:53:38.238Z,20.8
2023-05-19T11:54:38.233Z,20.8
2023-05-19T11:55:38.242Z,20.8
2023-05-19T11:56:38.265Z,20.8
2023-05-19T11:57:38.240Z,20.8
2023-05-19T11:58:38.228Z,20.8
2023-05-19T11:59:38.240Z,20.8
2023-05-19T12:00:38.295Z,21.2
2023-05-19T12:01:38.257Z,21.2
2023-05-19T12:02:38.310Z,21.2
2023-05-19T12:03:38.505Z,21.2
2023-05-19T12:04:38.265Z,21.2
2023-05-19T12:05:40.878Z,21.2
2023-05-19T12:06:38.342Z,21.2
2023-05-19T12:07:38.253Z,21.2
2023-05-19T12:08:38.233Z,21.2
2023-05-19T12:09:38.233Z,21.2
2023-05-19T12:10:38.234Z,21.2
2023-05-19T12:11:38.251Z,21.2
2023-05-19T12:12:38.247Z,21.2
2023-05-19T12:13:38.251Z,21.2
2023-05-19T12:14:38.273Z,21.2
2023-05-19T12:15:38.247Z,21.2
2023-05-19T12:16:38.319Z,21.2
2023-05-19T12:17:38.291Z,21.2
2023-05-19T12:18:38.285Z,21.2
2023-05-19T12:19:38.216Z,21.2
2023-05-19T12:20:38.292Z,21.2
2023-05-19T12:21:38.245Z,21.2
2023-05-19T12:22:38.260Z,21.2
2023-05-19T12:23:38.249Z,21.2
2023-05-19T12:24:38.253Z,21.2
2023-05-19T12:25:38.294Z,21.4
2023-05-19T12:26:38.257Z,21.4
2023-05-19T12:27:38.250Z,21.4
2023-05-19T12:28:38.262Z,21.4
2023-05-19T12:29:38.254Z,21.4
2023-05-19T12:30:38.509Z,21.4
2023-05-19T12:31:38.376Z,21.4
2023-05-19T12:32:38.339Z,21.4
2023-05-19T12:33:38.255Z,21.9
2023-05-19T12:34:38.287Z,21.9
2023-05-19T12:35:38.252Z,21.9
2023-05-19T12:36:38.293Z,21.9
2023-05-19T12:37:38.246Z,21.9
2023-05-19T12:38:38.260Z,21.9
2023-05-19T12:39:38.248Z,21.9
2023-05-19T12:40:39.247Z,21.9
2023-05-19T12:41:38.293Z,21.9
2023-05-19T12:42:38.251Z,21.9
2023-05-19T12:43:38.258Z,22.2
2023-05-19T12:44:38.300Z,22.2
2023-05-19T12:45:38.322Z,22.2
2023-05-19T12:46:38.253Z,22.2
2023-05-19T12:47:38.317Z,22.2
2023-05-19T12:48:38.249Z,22.2
2023-05-19T12:49:38.242Z,22.2
2023-05-19T12:50:38.295Z,22.2
2023-05-19T12:51:38.248Z,22.2
2023-05-19T12:52:38.251Z,22.4
2023-05-19T12:53:38.261Z,22.4
2023-05-19T12:54:38.278Z,22.4
2023-05-19T12:55:38.308Z,22.4
2023-05-19T12:56:38.255Z,22.4
2023-05-19T12:57:38.264Z,22.4
2023-05-19T12:58:38.276Z,22.4
2023-05-19T12:59:39.035Z,22.4
2023-05-19T13:00:38.268Z,22.4
2023-05-19T13:01:38.279Z,22.4
2023-05-19T13:02:38.381Z,22.4
2023-05-19T13:03:38.331Z,22.4
2023-05-19T13:04:38.268Z,22.4
2023-05-19T13:05:38.357Z,22.4
2023-05-19T13:06:38.272Z,22.4
2023-05-19T13:07:38.267Z,22.4
2023-05-19T13:08:38.264Z,22.4
2023-05-19T13:09:38.263Z,22.4
2023-05-19T13:10:38.271Z,22.4
2023-05-19T13:11:38.271Z,22.4
2023-05-19T13:12:38.269Z,22.4
2023-05-19T13:13:38.368Z,22.4
2023-05-19T13:14:38.273Z,22.4
2023-05-19T13:15:38.268Z,22.4
2023-05-19T13:16:38.314Z,22.4
2023-05-19T13:17:38.297Z,22.4
2023-05-19T13:18:38.376Z,22.4
2023-05-19T13:19:38.313Z,22.4
2023-05-19T13:20:38.267Z,22.4
2023-05-19T13:21:38.253Z,22.4
2023-05-19T13:22:38.273Z,22.4
2023-05-19T13:23:38.270Z,22.4
2023-05-19T13:24:38.264Z,22.4
2023-05-19T13:25:38.282Z,22.4
2023-05-19T13:26:38.232Z,22.9
2023-05-19T13:27:38.262Z,22.9
2023-05-19T13:28:38.266Z,22.9
2023-05-19T13:29:38.312Z,22.9
2023-05-19T13:30:38.396Z,22.9
2023-05-19T13:31:38.324Z,22.9
2023-05-19T13:32:38.288Z,22.9